createdAt,value
2018-04-27T00:00:07.238Z,3.3
2018-04-27T00:00:19.715Z,3.3
2018-04-27T00:00:32.148Z,3.3
2018-04-27T00:00:44.576Z,3.3
2018-04-27T00:00:57.005Z,3.3
2018-04-27T00:01:09.423Z,3.3
2018-04-27T00:01:21.847Z,3.3
2018-04-27T00:01:34.267Z,3.3
2018-04-27T00:01:46.696Z,3.3
2018-04-27T00:01:59.138Z,3.3
2018-04-27T00:02:11.653Z,3.3
2018-04-27T00:02:24.075Z,3.3
2018-04-27T00:02:36.524Z,3.3
2018-04-27T00:02:48.943Z,3.3
2018-04-27T00:03:01.374Z,3.3
2018-04-27T00:03:13.816Z,3.3
2018-04-27T00:03:26.247Z,3.3
2018-04-27T00:03:38.697Z,3.3
2018-04-27T00:03:51.107Z,3.3
2018-04-27T00:04:03.521Z,3.3
2018-04-27T00:04:15.947Z,3.3
2018-04-27T00:04:28.360Z,3.3
2018-04-27T00:04:40.772Z,3.3
2018-04-27T00:04:53.184Z,3.3
2018-04-27T00:05:06.158Z,3.15
2018-04-27T00:05:19.118Z,3.15
2018-04-27T00:05:31.534Z,3.15
2018-04-27T00:05:43.938Z,3.15
2018-04-27T00:05:56.355Z,3.15
2018-04-27T00:06:08.761Z,3.15
2018-04-27T00:06:21.174Z,3.15
2018-04-27T00:06:33.599Z,3.15
2018-04-27T00:06:46.014Z,3.15
2018-04-27T00:06:58.432Z,3.15
2018-04-27T00:07:10.855Z,3.15
2018-04-27T00:07:23.269Z,3.15
2018-04-27T00:07:35.682Z,3.15
2018-04-27T00:07:48.092Z,3.15
2018-04-27T00:08:00.512Z,3.15
2018-04-27T00:08:12.927Z,3.15
2018-04-27T00:08:25.390Z,3.15
2018-04-27T00:08:37.786Z,3.15
2018-04-27T00:08:50.188Z,3.15
2018-04-27T00:09:02.587Z,3.15
2018-04-27T00:09:15.023Z,3.15
2018-04-27T00:09:27.483Z,3.15
2018-04-27T00:09:39.916Z,3.15
2018-04-27T00:09:52.407Z,3.15
2018-04-27T00:10:04.812Z,3.15
2018-04-27T00:10:17.289Z,3.15
2018-04-27T00:10:29.721Z,3.15
2018-04-27T00:10:42.118Z,3.15
2018-04-27T00:10:54.515Z,3.15
2018-04-27T00:11:06.920Z,3.15
2018-04-27T00:11:19.332Z,3.15
2018-04-27T00:11:31.731Z,3.15
2018-04-27T00:11:44.134Z,3.15
2018-04-27T00:11:56.551Z,3.15
2018-04-27T00:12:08.955Z,3.15
2018-04-27T00:12:21.525Z,3.15
2018-04-27T00:12:33.933Z,3.15
2018-04-27T00:12:46.434Z,3.15
2018-04-27T00:12:58.849Z,3.15
2018-04-27T00:13:11.297Z,3.15
2018-04-27T00:13:23.731Z,3.15
2018-04-27T00:13:36.323Z,3.15
2018-04-27T00:13:48.725Z,3.15
2018-04-27T00:14:01.130Z,3.15
2018-04-27T00:14:13.621Z,3.15
2018-04-27T00:14:26.032Z,3.15
2018-04-27T00:14:38.444Z,3.15
2018-04-27T00:14:50.857Z,3.15
2018-04-27T00:15:03.256Z,3.15
2018-04-27T00:15:15.664Z,3.27
2018-04-27T00:15:28.119Z,3.27
2018-04-27T00:15:40.550Z,3.27
2018-04-27T00:15:52.967Z,3.27
2018-04-27T00:16:05.370Z,3.27
2018-04-27T00:16:17.780Z,3.27
2018-04-27T00:16:30.198Z,3.27
2018-04-27T00:16:42.599Z,3.27
2018-04-27T00:16:55.014Z,3.27
2018-04-27T00:17:07.417Z,3.27
2018-04-27T00:17:19.825Z,3.27
2018-04-27T00:17:32.234Z,3.27
2018-04-27T00:17:44.640Z,3.27
2018-04-27T00:17:57.052Z,3.27
2018-04-27T00:18:09.456Z,3.27
2018-04-27T00:18:21.879Z,3.27
2018-04-27T00:18:34.557Z,3.27
2018-04-27T00:18:46.970Z,3.27
2018-04-27T00:18:59.384Z,3.27
2018-04-27T00:19:11.855Z,3.27
2018-04-27T00:19:24.271Z,3.27
2018-04-27T00:19:36.722Z,3.27
2018-04-27T00:19:49.210Z,3.27
2018-04-27T00:20:01.617Z,3.27
2018-04-27T00:20:14.042Z,3.27
2018-04-27T00:20:26.435Z,3.27
2018-04-27T00:20:38.844Z,3.27
2018-04-27T00:20:51.252Z,3.27
2018-04-27T00:21:03.665Z,3.27
2018-04-27T00:21:16.071Z,3.27
2018-04-27T00:21:28.487Z,3.27
2018-04-27T00:21:40.923Z,3.27
2018-04-27T00:21:53.548Z,3.27
2018-04-27T00:22:05.946Z,3.27
2018-04-27T00:22:18.358Z,3.27
2018-04-27T00:22:30.762Z,3.27
2018-04-27T00:22:43.174Z,3.27
2018-04-27T00:22:55.583Z,3.27
2018-04-27T00:23:07.998Z,3.27
2018-04-27T00:23:20.440Z,3.27
2018-04-27T00:23:32.841Z,3.27
2018-04-27T00:23:45.263Z,3.27
2018-04-27T00:23:57.677Z,3.27
2018-04-27T00:24:10.080Z,3.27
2018-04-27T00:24:22.484Z,3.27
2018-04-27T00:24:34.888Z,3.27
2018-04-27T00:24:47.351Z,3.27
2018-04-27T00:24:59.816Z,3.27
2018-04-27T00:25:12.222Z,3.45
2018-04-27T00:25:24.685Z,3.45
2018-04-27T00:25:37.089Z,3.45
2018-04-27T00:25:49.557Z,3.45
2018-04-27T00:26:01.966Z,3.45
2018-04-27T00:26:14.391Z,3.45
2018-04-27T00:26:26.799Z,3.45
2018-04-27T00:26:39.212Z,3.45
2018-04-27T00:26:51.612Z,3.45
2018-04-27T00:27:04.075Z,3.45
2018-04-27T00:27:16.492Z,3.45
2018-04-27T00:27:28.914Z,3.45
2018-04-27T00:27:41.334Z,3.45
2018-04-27T00:27:53.760Z,3.45
2018-04-27T00:28:06.173Z,3.45
2018-04-27T00:28:18.664Z,3.45
2018-04-27T00:28:31.068Z,3.45
2018-04-27T00:28:43.481Z,3.45
2018-04-27T00:28:55.887Z,3.45
2018-04-27T00:29:08.286Z,3.45
2018-04-27T00:29:20.768Z,3.45
2018-04-27T00:29:33.201Z,3.45
2018-04-27T00:29:45.611Z,3.45
2018-04-27T00:29:58.025Z,3.45
2018-04-27T00:30:10.537Z,3.45
2018-04-27T00:30:23.055Z,3.45
2018-04-27T00:30:35.473Z,3.45
2018-04-27T00:30:47.877Z,3.45
2018-04-27T00:31:00.287Z,3.45
2018-04-27T00:31:12.703Z,3.45
2018-04-27T00:31:25.113Z,3.45
2018-04-27T00:31:37.534Z,3.45
2018-04-27T00:31:49.954Z,3.45
2018-04-27T00:32:02.367Z,3.45
2018-04-27T00:32:14.779Z,3.45
2018-04-27T00:32:27.202Z,3.45
2018-04-27T00:32:39.619Z,3.45
2018-04-27T00:32:52.023Z,3.45
2018-04-27T00:33:04.430Z,3.45
2018-04-27T00:33:16.833Z,3.45
2018-04-27T00:33:29.246Z,3.45
2018-04-27T00:33:41.649Z,3.45
2018-04-27T00:33:54.333Z,3.45
2018-04-27T00:34:06.745Z,3.45
2018-04-27T00:34:19.381Z,3.45
2018-04-27T00:34:32.669Z,3.45
2018-04-27T00:34:45.083Z,3.45
2018-04-27T00:34:57.498Z,3.45
2018-04-27T00:35:09.899Z,3.88
2018-04-27T00:35:22.331Z,3.88
2018-04-27T00:35:34.740Z,3.88
2018-04-27T00:35:47.151Z,3.88
2018-04-27T00:35:59.576Z,3.88
2018-04-27T00:36:11.991Z,3.88
2018-04-27T00:36:24.482Z,3.88
2018-04-27T00:36:36.892Z,3.88
2018-04-27T00:36:49.297Z,3.88
2018-04-27T00:37:01.707Z,3.88
2018-04-27T00:37:14.123Z,3.88
2018-04-27T00:37:26.524Z,3.88
2018-04-27T00:37:39.023Z,3.88
2018-04-27T00:37:51.426Z,3.88
2018-04-27T00:38:03.845Z,3.88
2018-04-27T00:38:16.311Z,3.88
2018-04-27T00:38:28.721Z,3.88
2018-04-27T00:38:41.146Z,3.88
2018-04-27T00:38:53.562Z,3.88
2018-04-27T00:39:05.980Z,3.88
2018-04-27T00:39:18.386Z,3.88
2018-04-27T00:39:30.800Z,3.88
2018-04-27T00:39:43.249Z,3.88
2018-04-27T00:39:55.660Z,3.88
2018-04-27T00:40:08.100Z,3.88
2018-04-27T00:40:20.645Z,3.88
2018-04-27T00:40:33.056Z,3.88
2018-04-27T00:40:45.457Z,3.88
2018-04-27T00:40:57.874Z,3.88
2018-04-27T00:41:10.291Z,3.88
2018-04-27T00:41:22.715Z,3.88
2018-04-27T00:41:35.127Z,3.88
2018-04-27T00:41:47.620Z,3.88
2018-04-27T00:42:00.047Z,3.88
2018-04-27T00:42:12.463Z,3.88
2018-04-27T00:42:24.918Z,3.88
2018-04-27T00:42:37.325Z,3.88
2018-04-27T00:42:49.736Z,3.88
2018-04-27T00:43:02.154Z,3.88
2018-04-27T00:43:14.561Z,3.88
2018-04-27T00:43:26.986Z,3.88
2018-04-27T00:43:39.398Z,3.88
2018-04-27T00:43:51.812Z,3.88
2018-04-27T00:44:04.232Z,3.88
2018-04-27T00:44:16.717Z,3.88
2018-04-27T00:44:29.139Z,3.88
2018-04-27T00:44:41.554Z,3.88
2018-04-27T00:44:54.038Z,3.88
2018-04-27T00:45:06.465Z,3.88
2018-04-27T00:45:18.867Z,3.15
2018-04-27T00:45:31.322Z,3.15
2018-04-27T00:45:43.860Z,3.15
2018-04-27T00:45:56.405Z,3.15
2018-04-27T00:46:08.812Z,3.15
2018-04-27T00:46:21.218Z,3.15
2018-04-27T00:46:33.638Z,3.15
2018-04-27T00:46:46.054Z,3.15
2018-04-27T00:46:58.457Z,3.15
2018-04-27T00:47:10.858Z,3.15
2018-04-27T00:47:23.273Z,3.15
2018-04-27T00:47:35.683Z,3.15
2018-04-27T00:47:48.108Z,3.15
2018-04-27T00:48:00.518Z,3.15
2018-04-27T00:48:13.085Z,3.15
2018-04-27T00:48:25.507Z,3.15
2018-04-27T00:48:37.917Z,3.15
2018-04-27T00:48:50.328Z,3.15
2018-04-27T00:49:02.788Z,3.15
2018-04-27T00:49:15.191Z,3.15
2018-04-27T00:49:27.655Z,3.15
2018-04-27T00:49:40.057Z,3.15
2018-04-27T00:49:52.477Z,3.15
2018-04-27T00:50:04.883Z,3.15
2018-04-27T00:50:17.523Z,3.15
2018-04-27T00:50:29.922Z,3.15
2018-04-27T00:50:42.336Z,3.15
2018-04-27T00:50:54.732Z,3.15
2018-04-27T00:51:07.125Z,3.15
2018-04-27T00:51:19.546Z,3.15
2018-04-27T00:51:31.962Z,3.15
2018-04-27T00:51:44.374Z,3.15
2018-04-27T00:51:56.800Z,3.15
2018-04-27T00:52:09.217Z,3.15
2018-04-27T00:52:21.610Z,3.15
2018-04-27T00:52:34.070Z,3.15
2018-04-27T00:52:46.474Z,3.15
2018-04-27T00:52:58.898Z,3.15
2018-04-27T00:53:11.309Z,3.15
2018-04-27T00:53:23.708Z,3.15
2018-04-27T00:53:36.115Z,3.15
2018-04-27T00:53:48.515Z,3.15
2018-04-27T00:54:00.932Z,3.15
2018-04-27T00:54:13.356Z,3.15
2018-04-27T00:54:25.769Z,3.15
2018-04-27T00:54:38.180Z,3.15
2018-04-27T00:54:50.594Z,3.15
2018-04-27T00:55:03.019Z,3.15
2018-04-27T00:55:15.424Z,3.8
2018-04-27T00:55:27.832Z,3.8
2018-04-27T00:55:40.253Z,3.8
2018-04-27T00:55:52.641Z,3.8
2018-04-27T00:56:05.043Z,3.8
2018-04-27T00:56:17.451Z,3.8
2018-04-27T00:56:29.856Z,3.8
2018-04-27T00:56:42.258Z,3.8
2018-04-27T00:56:54.666Z,3.8
2018-04-27T00:57:07.080Z,3.8
2018-04-27T00:57:19.571Z,3.8
2018-04-27T00:57:31.972Z,3.8
2018-04-27T00:57:44.423Z,3.8
2018-04-27T00:57:56.822Z,3.8
2018-04-27T00:58:09.267Z,3.8
2018-04-27T00:58:21.677Z,3.8
2018-04-27T00:58:34.093Z,3.8
2018-04-27T00:58:46.506Z,3.8
2018-04-27T00:58:58.913Z,3.8
2018-04-27T00:59:11.335Z,3.8
2018-04-27T00:59:23.732Z,3.8
2018-04-27T00:59:36.195Z,3.8
2018-04-27T00:59:48.593Z,3.8
2018-04-27T01:00:00.998Z,3.8
2018-04-27T01:00:13.517Z,3.8
2018-04-27T01:00:25.992Z,3.8
2018-04-27T01:00:38.451Z,3.8
2018-04-27T01:00:50.857Z,3.8
2018-04-27T01:01:03.277Z,3.8
2018-04-27T01:01:15.687Z,3.8
2018-04-27T01:01:28.111Z,3.8
2018-04-27T01:01:40.511Z,3.8
2018-04-27T01:01:52.921Z,3.8
2018-04-27T01:02:05.337Z,3.8
2018-04-27T01:02:17.744Z,3.8
2018-04-27T01:02:30.157Z,3.8
2018-04-27T01:02:42.841Z,3.8
2018-04-27T01:02:55.278Z,3.8
2018-04-27T01:03:07.696Z,3.8
2018-04-27T01:03:20.100Z,3.8
2018-04-27T01:03:32.502Z,3.8
2018-04-27T01:03:44.918Z,3.8
2018-04-27T01:03:57.315Z,3.8
2018-04-27T01:04:09.724Z,3.8
2018-04-27T01:04:22.130Z,3.8
2018-04-27T01:04:34.538Z,3.8
2018-04-27T01:04:46.942Z,3.8
2018-04-27T01:04:59.355Z,3.8
2018-04-27T01:05:11.773Z,3.98
2018-04-27T01:05:24.169Z,3.98
2018-04-27T01:05:36.568Z,3.98
2018-04-27T01:05:48.975Z,3.98
2018-04-27T01:06:01.377Z,3.98
2018-04-27T01:06:13.776Z,3.98
2018-04-27T01:06:26.194Z,3.98
2018-04-27T01:06:38.604Z,3.98
2018-04-27T01:06:51.016Z,3.98
2018-04-27T01:07:03.450Z,3.98
2018-04-27T01:07:15.859Z,3.98
2018-04-27T01:07:28.342Z,3.98
2018-04-27T01:07:40.826Z,3.98
2018-04-27T01:07:53.223Z,3.98
2018-04-27T01:08:05.642Z,3.98
2018-04-27T01:08:18.053Z,3.98
2018-04-27T01:08:30.467Z,3.98
2018-04-27T01:08:42.865Z,3.98
2018-04-27T01:08:55.338Z,3.98
2018-04-27T01:09:07.761Z,3.98
2018-04-27T01:09:20.162Z,3.98
2018-04-27T01:09:32.568Z,3.98
2018-04-27T01:09:45.049Z,3.98
2018-04-27T01:09:57.659Z,3.98
2018-04-27T01:10:10.093Z,3.98
2018-04-27T01:10:22.509Z,3.98
2018-04-27T01:10:34.935Z,3.98
2018-04-27T01:10:47.346Z,3.98
2018-04-27T01:10:59.760Z,3.98
2018-04-27T01:11:12.169Z,3.98
2018-04-27T01:11:24.580Z,3.98
2018-04-27T01:11:36.989Z,3.98
2018-04-27T01:11:49.418Z,3.98
2018-04-27T01:12:01.838Z,3.98
2018-04-27T01:12:14.252Z,3.98
2018-04-27T01:12:26.673Z,3.98
2018-04-27T01:12:39.090Z,3.98
2018-04-27T01:12:51.506Z,3.98
2018-04-27T01:13:04.011Z,3.98
2018-04-27T01:13:16.493Z,3.98
2018-04-27T01:13:28.908Z,3.98
2018-04-27T01:13:41.469Z,3.98
2018-04-27T01:13:53.875Z,3.98
2018-04-27T01:14:06.287Z,3.98
2018-04-27T01:14:18.748Z,3.98
2018-04-27T01:14:31.171Z,3.98
2018-04-27T01:14:43.586Z,3.98
2018-04-27T01:14:55.991Z,3.98
2018-04-27T01:15:08.568Z,3.98
2018-04-27T01:15:20.998Z,4.68
2018-04-27T01:15:33.418Z,4.68
2018-04-27T01:15:45.828Z,4.68
2018-04-27T01:15:58.259Z,4.68
2018-04-27T01:16:10.655Z,4.68
2018-04-27T01:16:23.077Z,4.68
2018-04-27T01:16:35.486Z,4.68
2018-04-27T01:16:47.931Z,4.68
2018-04-27T01:17:00.351Z,4.68
2018-04-27T01:17:12.766Z,4.68
2018-04-27T01:17:25.161Z,4.68
2018-04-27T01:17:37.564Z,4.68
2018-04-27T01:17:49.988Z,4.68
2018-04-27T01:18:02.385Z,4.68
2018-04-27T01:18:14.782Z,4.68
2018-04-27T01:18:27.361Z,4.68
2018-04-27T01:18:39.936Z,4.68
2018-04-27T01:18:52.357Z,4.68
2018-04-27T01:19:04.775Z,4.68
2018-04-27T01:19:17.180Z,4.68
2018-04-27T01:19:29.590Z,4.68
2018-04-27T01:19:41.991Z,4.68
2018-04-27T01:19:54.406Z,4.68
2018-04-27T01:20:06.861Z,4.68
2018-04-27T01:20:19.304Z,4.68
2018-04-27T01:20:31.704Z,4.68
2018-04-27T01:20:44.116Z,4.68
2018-04-27T01:20:56.518Z,4.68
2018-04-27T01:21:08.920Z,4.68
2018-04-27T01:21:21.331Z,4.68
2018-04-27T01:21:33.740Z,4.68
2018-04-27T01:21:46.153Z,4.68
2018-04-27T01:21:58.801Z,4.68
2018-04-27T01:22:11.204Z,4.68
2018-04-27T01:22:23.788Z,4.68
2018-04-27T01:22:36.199Z,4.68
2018-04-27T01:22:48.613Z,4.68
2018-04-27T01:23:01.016Z,4.68
2018-04-27T01:23:13.427Z,4.68
2018-04-27T01:23:25.821Z,4.68
2018-04-27T01:23:38.227Z,4.68
2018-04-27T01:23:50.650Z,4.68
2018-04-27T01:24:03.089Z,4.68
2018-04-27T01:24:15.498Z,4.68
2018-04-27T01:24:27.908Z,4.68
2018-04-27T01:24:40.314Z,4.68
2018-04-27T01:24:52.725Z,4.68
2018-04-27T01:25:05.141Z,4.68
2018-04-27T01:25:17.554Z,4.82
2018-04-27T01:25:29.966Z,4.82
2018-04-27T01:25:42.378Z,4.82
2018-04-27T01:25:54.785Z,4.82
2018-04-27T01:26:07.247Z,4.82
2018-04-27T01:26:19.652Z,4.82
2018-04-27T01:26:32.077Z,4.82
2018-04-27T01:26:44.497Z,4.82
2018-04-27T01:26:56.913Z,4.82
2018-04-27T01:27:09.311Z,4.82
2018-04-27T01:27:21.743Z,4.82
2018-04-27T01:27:34.149Z,4.82
2018-04-27T01:27:46.670Z,4.82
2018-04-27T01:27:59.072Z,4.82
2018-04-27T01:28:11.480Z,4.82
2018-04-27T01:28:23.885Z,4.82
2018-04-27T01:28:36.376Z,4.82
2018-04-27T01:28:48.810Z,4.82
2018-04-27T01:29:01.231Z,4.82
2018-04-27T01:29:13.636Z,4.82
2018-04-27T01:29:26.044Z,4.82
2018-04-27T01:29:38.473Z,4.82
2018-04-27T01:29:50.875Z,4.82
2018-04-27T01:30:03.278Z,4.82
2018-04-27T01:30:15.689Z,4.82
2018-04-27T01:30:28.089Z,4.82
2018-04-27T01:30:40.487Z,4.82
2018-04-27T01:30:52.887Z,4.82
2018-04-27T01:31:05.278Z,4.82
2018-04-27T01:31:17.714Z,4.82
2018-04-27T01:31:30.126Z,4.82
2018-04-27T01:31:42.532Z,4.82
2018-04-27T01:31:54.945Z,4.82
2018-04-27T01:32:07.368Z,4.82
2018-04-27T01:32:19.776Z,4.82
2018-04-27T01:32:32.214Z,4.82
2018-04-27T01:32:44.630Z,4.82
2018-04-27T01:32:57.045Z,4.82
2018-04-27T01:33:09.448Z,4.82
2018-04-27T01:33:21.851Z,4.82
2018-04-27T01:33:34.277Z,4.82
2018-04-27T01:33:46.691Z,4.82
2018-04-27T01:33:59.340Z,4.82
2018-04-27T01:34:11.744Z,4.82
2018-04-27T01:34:24.166Z,4.82
2018-04-27T01:34:36.578Z,4.82
2018-04-27T01:34:48.989Z,4.82
2018-04-27T01:35:01.424Z,4.82
2018-04-27T01:35:13.840Z,4.98
2018-04-27T01:35:26.256Z,4.98
2018-04-27T01:35:38.712Z,4.98
2018-04-27T01:35:51.121Z,4.98
2018-04-27T01:36:03.510Z,4.98
2018-04-27T01:36:15.901Z,4.98
2018-04-27T01:36:28.305Z,4.98
2018-04-27T01:36:40.716Z,4.98
2018-04-27T01:36:53.124Z,4.98
2018-04-27T01:37:05.533Z,4.98
2018-04-27T01:37:17.952Z,4.98
2018-04-27T01:37:30.361Z,4.98
2018-04-27T01:37:42.845Z,4.98
2018-04-27T01:37:55.240Z,4.98
2018-04-27T01:38:07.649Z,4.98
2018-04-27T01:38:20.046Z,4.98
2018-04-27T01:38:32.461Z,4.98
2018-04-27T01:38:44.865Z,4.98
2018-04-27T01:38:57.281Z,4.98
2018-04-27T01:39:09.693Z,4.98
2018-04-27T01:39:22.106Z,4.98
2018-04-27T01:39:34.510Z,4.98
2018-04-27T01:39:46.915Z,4.98
2018-04-27T01:39:59.307Z,4.98
2018-04-27T01:40:11.711Z,4.98
2018-04-27T01:40:24.108Z,4.98
2018-04-27T01:40:37.089Z,4.98
2018-04-27T01:40:49.497Z,4.98
2018-04-27T01:41:01.919Z,4.98
2018-04-27T01:41:14.317Z,4.98
2018-04-27T01:41:26.718Z,4.98
2018-04-27T01:41:39.128Z,4.98
2018-04-27T01:41:51.547Z,4.98
2018-04-27T01:42:03.962Z,4.98
2018-04-27T01:42:16.369Z,4.98
2018-04-27T01:42:28.785Z,4.98
2018-04-27T01:42:41.198Z,4.98
2018-04-27T01:42:53.611Z,4.98
2018-04-27T01:43:06.021Z,4.98
2018-04-27T01:43:18.544Z,4.98
2018-04-27T01:43:30.955Z,4.98
2018-04-27T01:43:43.368Z,4.98
2018-04-27T01:43:55.771Z,4.98
2018-04-27T01:44:08.177Z,4.98
2018-04-27T01:44:20.600Z,4.98
2018-04-27T01:44:33.008Z,4.98
2018-04-27T01:44:45.410Z,4.98
2018-04-27T01:44:57.811Z,4.98
2018-04-27T01:45:10.220Z,5.45
2018-04-27T01:45:22.702Z,5.45
2018-04-27T01:45:35.160Z,5.45
2018-04-27T01:45:47.723Z,5.45
2018-04-27T01:46:00.132Z,5.45
2018-04-27T01:46:12.558Z,5.45
2018-04-27T01:46:24.989Z,5.45
2018-04-27T01:46:37.469Z,5.45
2018-04-27T01:46:49.872Z,5.45
2018-04-27T01:47:02.336Z,5.45
2018-04-27T01:47:14.768Z,5.45
2018-04-27T01:47:27.167Z,5.45
2018-04-27T01:47:39.588Z,5.45
2018-04-27T01:47:52.000Z,5.45
2018-04-27T01:48:04.477Z,5.45
2018-04-27T01:48:17.104Z,5.45
2018-04-27T01:48:29.525Z,5.45
2018-04-27T01:48:41.932Z,5.45
2018-04-27T01:48:54.346Z,5.45
2018-04-27T01:49:06.802Z,5.45
2018-04-27T01:49:19.211Z,5.45
2018-04-27T01:49:31.613Z,5.45
2018-04-27T01:49:44.025Z,5.45
2018-04-27T01:49:56.424Z,5.45
2018-04-27T01:50:09.042Z,5.45
2018-04-27T01:50:21.459Z,5.45
2018-04-27T01:50:33.903Z,5.45
2018-04-27T01:50:46.306Z,5.45
2018-04-27T01:50:58.806Z,5.45
2018-04-27T01:51:11.215Z,5.45
2018-04-27T01:51:23.605Z,5.45
2018-04-27T01:51:36.049Z,5.45
2018-04-27T01:51:48.473Z,5.45
2018-04-27T01:52:00.871Z,5.45
2018-04-27T01:52:13.288Z,5.45
2018-04-27T01:52:25.696Z,5.45
2018-04-27T01:52:38.104Z,5.45
2018-04-27T01:52:50.866Z,5.45
2018-04-27T01:53:03.287Z,5.45
2018-04-27T01:53:15.702Z,5.45
2018-04-27T01:53:28.113Z,5.45
2018-04-27T01:53:40.521Z,5.45
2018-04-27T01:53:52.947Z,5.45
2018-04-27T01:54:05.359Z,5.45
2018-04-27T01:54:17.767Z,5.45
2018-04-27T01:54:30.184Z,5.45
2018-04-27T01:54:42.600Z,5.45
2018-04-27T01:54:55.022Z,5.45
2018-04-27T01:55:07.440Z,5.45
2018-04-27T01:55:19.861Z,5.42
2018-04-27T01:55:32.271Z,5.42
2018-04-27T01:55:44.688Z,5.42
2018-04-27T01:55:57.103Z,5.42
2018-04-27T01:56:09.507Z,5.42
2018-04-27T01:56:21.918Z,5.42
2018-04-27T01:56:34.321Z,5.42
2018-04-27T01:56:46.732Z,5.42
2018-04-27T01:56:59.145Z,5.42
2018-04-27T01:57:11.553Z,5.42
2018-04-27T01:57:23.962Z,5.42
2018-04-27T01:57:36.362Z,5.42
2018-04-27T01:57:48.903Z,5.42
2018-04-27T01:58:01.299Z,5.42
2018-04-27T01:58:13.766Z,5.42
2018-04-27T01:58:26.177Z,5.42
2018-04-27T01:58:38.572Z,5.42
2018-04-27T01:58:50.976Z,5.42
2018-04-27T01:59:03.385Z,5.42
2018-04-27T01:59:15.796Z,5.42
2018-04-27T01:59:28.216Z,5.42
2018-04-27T01:59:40.633Z,5.42
2018-04-27T01:59:53.068Z,5.42
2018-04-27T02:00:05.490Z,5.42
2018-04-27T02:00:17.931Z,5.42
2018-04-27T02:00:30.376Z,5.42
2018-04-27T02:00:42.800Z,5.42
2018-04-27T02:00:55.216Z,5.42
2018-04-27T02:01:07.684Z,5.42
2018-04-27T02:01:20.079Z,5.42
2018-04-27T02:01:32.478Z,5.42
2018-04-27T02:01:44.908Z,5.42
2018-04-27T02:01:57.463Z,5.42
2018-04-27T02:02:09.881Z,5.42
2018-04-27T02:02:22.316Z,5.42
2018-04-27T02:02:34.732Z,5.42
2018-04-27T02:02:47.125Z,5.42
2018-04-27T02:02:59.531Z,5.42
2018-04-27T02:03:11.947Z,5.42
2018-04-27T02:03:24.375Z,5.42
2018-04-27T02:03:36.771Z,5.42
2018-04-27T02:03:49.179Z,5.42
2018-04-27T02:04:01.573Z,5.42
2018-04-27T02:04:13.985Z,5.42
2018-04-27T02:04:26.394Z,5.42
2018-04-27T02:04:38.809Z,5.42
2018-04-27T02:04:51.217Z,5.42
2018-04-27T02:05:03.616Z,5.42
2018-04-27T02:05:16.036Z,5.55
2018-04-27T02:05:28.444Z,5.55
2018-04-27T02:05:40.856Z,5.55
2018-04-27T02:05:53.258Z,5.55
2018-04-27T02:06:06.180Z,5.55
2018-04-27T02:06:18.592Z,5.55
2018-04-27T02:06:31.352Z,5.55
2018-04-27T02:06:43.771Z,5.55
2018-04-27T02:06:56.256Z,5.55
2018-04-27T02:07:08.677Z,5.55
2018-04-27T02:07:21.084Z,5.55
2018-04-27T02:07:33.661Z,5.55
2018-04-27T02:07:46.077Z,5.55
2018-04-27T02:07:58.496Z,5.55
2018-04-27T02:08:10.902Z,5.55
2018-04-27T02:08:23.312Z,5.55
2018-04-27T02:08:35.713Z,5.55
2018-04-27T02:08:48.121Z,5.55
2018-04-27T02:09:00.532Z,5.55
2018-04-27T02:09:12.928Z,5.55
2018-04-27T02:09:25.357Z,5.55
2018-04-27T02:09:37.789Z,5.55
2018-04-27T02:09:50.207Z,5.55
2018-04-27T02:10:02.611Z,5.55
2018-04-27T02:10:15.032Z,5.55
2018-04-27T02:10:27.450Z,5.55
2018-04-27T02:10:39.857Z,5.55
2018-04-27T02:10:52.259Z,5.55
2018-04-27T02:11:04.671Z,5.55
2018-04-27T02:11:17.152Z,5.55
2018-04-27T02:11:29.566Z,5.55
2018-04-27T02:11:42.056Z,5.55
2018-04-27T02:11:54.535Z,5.55
2018-04-27T02:12:06.926Z,5.55
2018-04-27T02:12:19.332Z,5.55
2018-04-27T02:12:31.796Z,5.55
2018-04-27T02:12:44.258Z,5.55
2018-04-27T02:12:56.669Z,5.55
2018-04-27T02:13:09.143Z,5.55
2018-04-27T02:13:21.621Z,5.55
2018-04-27T02:13:34.022Z,5.55
2018-04-27T02:13:46.652Z,5.55
2018-04-27T02:13:59.126Z,5.55
2018-04-27T02:14:11.529Z,5.55
2018-04-27T02:14:23.935Z,5.55
2018-04-27T02:14:36.527Z,5.55
2018-04-27T02:14:48.933Z,5.55
2018-04-27T02:15:01.336Z,5.55
2018-04-27T02:15:13.754Z,5.83
2018-04-27T02:15:26.214Z,5.83
2018-04-27T02:15:38.624Z,5.83
2018-04-27T02:15:51.053Z,5.83
2018-04-27T02:16:03.461Z,5.83
2018-04-27T02:16:15.865Z,5.83
2018-04-27T02:16:28.282Z,5.83
2018-04-27T02:16:40.688Z,5.83
2018-04-27T02:16:53.085Z,5.83
2018-04-27T02:17:05.491Z,5.83
2018-04-27T02:17:17.923Z,5.83
2018-04-27T02:17:30.341Z,5.83
2018-04-27T02:17:42.821Z,5.83
2018-04-27T02:17:55.222Z,5.83
2018-04-27T02:18:07.627Z,5.83
2018-04-27T02:18:20.030Z,5.83
2018-04-27T02:18:32.719Z,5.83
2018-04-27T02:18:45.136Z,5.83
2018-04-27T02:18:57.563Z,5.83
2018-04-27T02:19:09.974Z,5.83
2018-04-27T02:19:22.386Z,5.83
2018-04-27T02:19:34.801Z,5.83
2018-04-27T02:19:47.228Z,5.83
2018-04-27T02:19:59.655Z,5.83
2018-04-27T02:20:12.083Z,5.83
2018-04-27T02:20:24.474Z,5.83
2018-04-27T02:20:36.956Z,5.83
2018-04-27T02:20:49.375Z,5.83
2018-04-27T02:21:01.774Z,5.83
2018-04-27T02:21:14.181Z,5.83
2018-04-27T02:21:26.578Z,5.83
2018-04-27T02:21:39.014Z,5.83
2018-04-27T02:21:51.430Z,5.83
2018-04-27T02:22:03.994Z,5.83
2018-04-27T02:22:16.403Z,5.83
2018-04-27T02:22:28.793Z,5.83
2018-04-27T02:22:41.210Z,5.83
2018-04-27T02:22:53.671Z,5.83
2018-04-27T02:23:06.091Z,5.83
2018-04-27T02:23:18.491Z,5.83
2018-04-27T02:23:30.897Z,5.83
2018-04-27T02:23:43.311Z,5.83
2018-04-27T02:23:55.717Z,5.83
2018-04-27T02:24:08.130Z,5.83
2018-04-27T02:24:20.549Z,5.83
2018-04-27T02:24:32.944Z,5.83
2018-04-27T02:24:45.359Z,5.83
2018-04-27T02:24:57.754Z,5.83
2018-04-27T02:25:10.285Z,5.83
2018-04-27T02:25:22.698Z,5.63
2018-04-27T02:25:35.116Z,5.63
2018-04-27T02:25:47.520Z,5.63
2018-04-27T02:26:00.004Z,5.63
2018-04-27T02:26:12.406Z,5.63
2018-04-27T02:26:24.817Z,5.63
2018-04-27T02:26:37.252Z,5.63
2018-04-27T02:26:49.660Z,5.63
2018-04-27T02:27:02.147Z,5.63
2018-04-27T02:27:14.561Z,5.63
2018-04-27T02:27:26.979Z,5.63
2018-04-27T02:27:39.389Z,5.63
2018-04-27T02:27:51.803Z,5.63
2018-04-27T02:28:04.205Z,5.63
2018-04-27T02:28:16.608Z,5.63
2018-04-27T02:28:29.037Z,5.63
2018-04-27T02:28:41.449Z,5.63
2018-04-27T02:28:53.856Z,5.63
2018-04-27T02:29:06.263Z,5.63
2018-04-27T02:29:18.670Z,5.63
2018-04-27T02:29:31.097Z,5.63
2018-04-27T02:29:43.504Z,5.63
2018-04-27T02:29:55.989Z,5.63
2018-04-27T02:30:08.457Z,5.63
2018-04-27T02:30:21.013Z,5.63
2018-04-27T02:30:33.449Z,5.63
2018-04-27T02:30:45.962Z,5.63
2018-04-27T02:30:58.381Z,5.63
2018-04-27T02:31:10.865Z,5.63
2018-04-27T02:31:23.298Z,5.63
2018-04-27T02:31:35.724Z,5.63
2018-04-27T02:31:48.131Z,5.63
2018-04-27T02:32:00.572Z,5.63
2018-04-27T02:32:13.037Z,5.63
2018-04-27T02:32:25.464Z,5.63
2018-04-27T02:32:37.886Z,5.63
2018-04-27T02:32:50.313Z,5.63
2018-04-27T02:33:02.760Z,5.63
2018-04-27T02:33:15.231Z,5.63
2018-04-27T02:33:27.675Z,5.63
2018-04-27T02:33:40.123Z,5.63
2018-04-27T02:33:53.144Z,5.63
2018-04-27T02:34:05.561Z,5.63
2018-04-27T02:34:18.051Z,5.63
2018-04-27T02:34:30.475Z,5.63
2018-04-27T02:34:42.929Z,5.63
2018-04-27T02:34:55.377Z,5.63
2018-04-27T02:35:07.835Z,5.63
2018-04-27T02:35:20.282Z,5.58
2018-04-27T02:35:32.728Z,5.58
2018-04-27T02:35:45.220Z,5.58
2018-04-27T02:35:57.656Z,5.58
2018-04-27T02:36:10.081Z,5.58
2018-04-27T02:36:22.506Z,5.58
2018-04-27T02:36:34.923Z,5.58
2018-04-27T02:36:47.429Z,5.58
2018-04-27T02:36:59.852Z,5.58
2018-04-27T02:37:12.387Z,5.58
2018-04-27T02:37:24.838Z,5.58
2018-04-27T02:37:37.269Z,5.58
2018-04-27T02:37:49.700Z,5.58
2018-04-27T02:38:02.143Z,5.58
2018-04-27T02:38:14.562Z,5.58
2018-04-27T02:38:26.995Z,5.58
2018-04-27T02:38:39.428Z,5.58
2018-04-27T02:38:51.843Z,5.58
2018-04-27T02:39:04.284Z,5.58
2018-04-27T02:39:16.735Z,5.58
2018-04-27T02:39:29.420Z,5.58
2018-04-27T02:39:41.935Z,5.58
2018-04-27T02:39:54.355Z,5.58
2018-04-27T02:40:06.811Z,5.58
2018-04-27T02:40:19.247Z,5.58
2018-04-27T02:40:31.674Z,5.58
2018-04-27T02:40:44.116Z,5.58
2018-04-27T02:40:56.676Z,5.58
2018-04-27T02:41:09.112Z,5.58
2018-04-27T02:41:21.534Z,5.58
2018-04-27T02:41:33.985Z,5.58
2018-04-27T02:41:46.399Z,5.58
2018-04-27T02:41:58.864Z,5.58
2018-04-27T02:42:11.299Z,5.58
2018-04-27T02:42:23.722Z,5.58
2018-04-27T02:42:36.142Z,5.58
2018-04-27T02:42:48.578Z,5.58
2018-04-27T02:43:01.016Z,5.58
2018-04-27T02:43:13.448Z,5.58
2018-04-27T02:43:25.864Z,5.58
2018-04-27T02:43:38.389Z,5.58
2018-04-27T02:43:50.807Z,5.58
2018-04-27T02:44:03.319Z,5.58
2018-04-27T02:44:15.737Z,5.58
2018-04-27T02:44:28.152Z,5.58
2018-04-27T02:44:40.625Z,5.58
2018-04-27T02:44:53.087Z,5.58
2018-04-27T02:45:05.503Z,5.58
2018-04-27T02:45:17.941Z,5.58
2018-04-27T02:45:30.365Z,5.58
2018-04-27T02:45:42.880Z,5.58
2018-04-27T02:45:55.451Z,5.58